sensor_id;sensor_type;location;lat;lon;timestamp;temperature;humidity
33645;DHT22;19986;48.190;16.366;2023-07-20T00:02:07;26.30;90.30
33645;DHT22;19986;48.190;16.366;2023-07-20T00:04:33;26.30;90.30
33645;DHT22;19986;48.190;16.366;2023-07-20T00:06:59;26.30;90.30
33645;DHT22;19986;48.190;16.366;2023-07-20T00:09:26;26.30;90.20
33645;DHT22;19986;48.190;16.366;2023-07-20T00:11:52;26.30;90.30
33645;DHT22;19986;48.190;16.366;2023-07-20T00:14:19;26.30;90.30
33645;DHT22;19986;48.190;16.366;2023-07-20T00:16:45;26.30;90.10
33645;DHT22;19986;48.190;16.366;2023-07-20T00:19:14;26.30;90.20
33645;DHT22;19986;48.190;16.366;2023-07-20T00:21:41;26.30;90.10
33645;DHT22;19986;48.190;16.366;2023-07-20T00:24:08;26.30;90.00
33645;DHT22;19986;48.190;16.366;2023-07-20T00:26:34;26.30;90.00
33645;DHT22;19986;48.190;16.366;2023-07-20T00:29:00;26.30;89.70
33645;DHT22;19986;48.190;16.366;2023-07-20T00:31:25;26.30;89.80
33645;DHT22;19986;48.190;16.366;2023-07-20T00:33:52;26.30;90.30
33645;DHT22;19986;48.190;16.366;2023-07-20T00:36:18;26.40;89.80
33645;DHT22;19986;48.190;16.366;2023-07-20T00:38:44;26.40;89.90
33645;DHT22;19986;48.190;16.366;2023-07-20T00:41:10;26.30;89.90
33645;DHT22;19986;48.190;16.366;2023-07-20T00:43:35;26.30;89.90
33645;DHT22;19986;48.190;16.366;2023-07-20T00:46:01;26.30;90.00
33645;DHT22;19986;48.190;16.366;2023-07-20T00:48:29;26.30;90.10
33645;DHT22;19986;48.190;16.366;2023-07-20T00:50:55;26.30;90.20
33645;DHT22;19986;48.190;16.366;2023-07-20T00:53:22;26.30;90.50
33645;DHT22;19986;48.190;16.366;2023-07-20T00:55:48;26.20;90.60
33645;DHT22;19986;48.190;16.366;2023-07-20T00:58:14;26.20;90.90
33645;DHT22;19986;48.190;16.366;2023-07-20T01:00:40;26.20;91.00
33645;DHT22;19986;48.190;16.366;2023-07-20T01:03:06;26.20;91.30
33645;DHT22;19986;48.190;16.366;2023-07-20T01:05:42;26.10;91.30
33645;DHT22;19986;48.190;16.366;2023-07-20T01:08:24;26.20;91.40
33645;DHT22;19986;48.190;16.366;2023-07-20T01:11:15;26.10;91.50
33645;DHT22;19986;48.190;16.366;2023-07-20T01:13:42;26.20;91.50
33645;DHT22;19986;48.190;16.366;2023-07-20T01:16:09;26.20;91.40
33645;DHT22;19986;48.190;16.366;2023-07-20T01:18:34;26.20;91.30
33645;DHT22;19986;48.190;16.366;2023-07-20T01:21:06;26.30;91.40
33645;DHT22;19986;48.190;16.366;2023-07-20T01:29:22;26.30;91.00
33645;DHT22;19986;48.190;16.366;2023-07-20T01:31:54;26.40;91.00
33645;DHT22;19986;48.190;16.366;2023-07-20T01:34:22;26.40;90.90
33645;DHT22;19986;48.190;16.366;2023-07-20T01:36:50;26.30;91.00
33645;DHT22;19986;48.190;16.366;2023-07-20T01:39:19;26.30;91.00
33645;DHT22;19986;48.190;16.366;2023-07-20T01:41:47;26.30;90.90
33645;DHT22;19986;48.190;16.366;2023-07-20T01:44:13;26.30;90.80
33645;DHT22;19986;48.190;16.366;2023-07-20T01:46:39;26.30;90.90
33645;DHT22;19986;48.190;16.366;2023-07-20T01:49:06;26.20;91.00
33645;DHT22;19986;48.190;16.366;2023-07-20T01:51:32;26.20;91.10
33645;DHT22;19986;48.190;16.366;2023-07-20T01:53:57;26.20;91.20
33645;DHT22;19986;48.190;16.366;2023-07-20T01:56:23;26.10;91.30
33645;DHT22;19986;48.190;16.366;2023-07-20T01:58:50;26.00;91.40
33645;DHT22;19986;48.190;16.366;2023-07-20T02:01:16;26.00;91.50
33645;DHT22;19986;48.190;16.366;2023-07-20T02:03:43;26.00;91.60
33645;DHT22;19986;48.190;16.366;2023-07-20T02:06:09;26.00;91.70
33645;DHT22;19986;48.190;16.366;2023-07-20T02:08:36;25.90;91.80
33645;DHT22;19986;48.190;16.366;2023-07-20T02:11:02;25.90;91.90
33645;DHT22;19986;48.190;16.366;2023-07-20T02:13:30;25.90;91.90
33645;DHT22;19986;48.190;16.366;2023-07-20T02:15:57;25.90;92.00
33645;DHT22;19986;48.190;16.366;2023-07-20T02:18:23;25.90;92.00
33645;DHT22;19986;48.190;16.366;2023-07-20T02:20:53;25.90;92.10
33645;DHT22;19986;48.190;16.366;2023-07-20T02:23:19;25.90;92.20
33645;DHT22;19986;48.190;16.366;2023-07-20T02:25:46;25.90;92.20
33645;DHT22;19986;48.190;16.366;2023-07-20T02:28:15;25.90;92.20
33645;DHT22;19986;48.190;16.366;2023-07-20T02:30:41;25.90;92.30
33645;DHT22;19986;48.190;16.366;2023-07-20T02:33:07;25.90;92.40
33645;DHT22;19986;48.190;16.366;2023-07-20T02:35:33;25.90;92.40
33645;DHT22;19986;48.190;16.366;2023-07-20T02:38:00;25.90;92.40
33645;DHT22;19986;48.190;16.366;2023-07-20T02:40:26;25.90;92.40
33645;DHT22;19986;48.190;16.366;2023-07-20T02:42:54;25.90;92.50
33645;DHT22;19986;48.190;16.366;2023-07-20T02:45:19;25.90;92.40
33645;DHT22;19986;48.190;16.366;2023-07-20T02:47:45;25.90;92.40
33645;DHT22;19986;48.190;16.366;2023-07-20T02:50:11;26.00;92.40
33645;DHT22;19986;48.190;16.366;2023-07-20T02:52:39;26.00;92.40
33645;DHT22;19986;48.190;16.366;2023-07-20T02:55:05;25.90;92.40
33645;DHT22;19986;48.190;16.366;2023-07-20T02:57:31;25.80;92.40
33645;DHT22;19986;48.190;16.366;2023-07-20T02:59:57;25.80;92.50
33645;DHT22;19986;48.190;16.366;2023-07-20T03:02:24;25.80;92.50
33645;DHT22;19986;48.190;16.366;2023-07-20T03:04:50;25.80;92.50
33645;DHT22;19986;48.190;16.366;2023-07-20T03:07:16;25.80;92.60
33645;DHT22;19986;48.190;16.366;2023-07-20T03:09:42;25.80;92.60
33645;DHT22;19986;48.190;16.366;2023-07-20T03:12:09;25.80;92.60
33645;DHT22;19986;48.190;16.366;2023-07-20T03:14:35;25.70;92.60
33645;DHT22;19986;48.190;16.366;2023-07-20T03:17:00;25.70;92.70
33645;DHT22;19986;48.190;16.366;2023-07-20T03:19:26;25.70;92.70
33645;DHT22;19986;48.190;16.366;2023-07-20T03:21:53;25.70;92.80
33645;DHT22;19986;48.190;16.366;2023-07-20T03:24:19;25.70;92.70
33645;DHT22;19986;48.190;16.366;2023-07-20T03:26:45;25.60;92.70
33645;DHT22;19986;48.190;16.366;2023-07-20T03:29:11;25.60;92.60
33645;DHT22;19986;48.190;16.366;2023-07-20T03:31:36;25.60;92.50
33645;DHT22;19986;48.190;16.366;2023-07-20T03:34:02;25.60;92.60
33645;DHT22;19986;48.190;16.366;2023-07-20T03:36:28;25.70;92.30
33645;DHT22;19986;48.190;16.366;2023-07-20T03:38:54;25.70;92.40
33645;DHT22;19986;48.190;16.366;2023-07-20T03:41:20;25.60;92.30
33645;DHT22;19986;48.190;16.366;2023-07-20T03:43:47;25.60;92.30
33645;DHT22;19986;48.190;16.366;2023-07-20T03:46:13;25.60;92.40
33645;DHT22;19986;48.190;16.366;2023-07-20T03:48:38;25.60;92.50
33645;DHT22;19986;48.190;16.366;2023-07-20T03:51:04;25.70;92.50
33645;DHT22;19986;48.190;16.366;2023-07-20T03:53:30;25.70;92.50
33645;DHT22;19986;48.190;16.366;2023-07-20T03:55:56;25.70;92.40
33645;DHT22;19986;48.190;16.366;2023-07-20T03:58:24;25.80;92.50
33645;DHT22;19986;48.190;16.366;2023-07-20T04:00:51;25.80;92.50
33645;DHT22;19986;48.190;16.366;2023-07-20T04:03:18;25.90;92.40
33645;DHT22;19986;48.190;16.366;2023-07-20T04:05:44;25.90;92.40
33645;DHT22;19986;48.190;16.366;2023-07-20T04:08:11;25.90;92.50
33645;DHT22;19986;48.190;16.366;2023-07-20T04:10:38;25.90;92.60
33645;DHT22;19986;48.190;16.366;2023-07-20T04:13:04;25.90;92.50
33645;DHT22;19986;48.190;16.366;2023-07-20T04:15:30;26.00;92.60
33645;DHT22;19986;48.190;16.366;2023-07-20T04:17:57;26.00;92.60
33645;DHT22;19986;48.190;16.366;2023-07-20T04:20:23;26.00;92.60
33645;DHT22;19986;48.190;16.366;2023-07-20T04:22:50;26.00;92.70
33645;DHT22;19986;48.190;16.366;2023-07-20T04:25:17;26.00;92.70
33645;DHT22;19986;48.190;16.366;2023-07-20T04:27:43;26.00;92.70
33645;DHT22;19986;48.190;16.366;2023-07-20T04:30:10;26.00;92.70
33645;DHT22;19986;48.190;16.366;2023-07-20T04:32:37;26.00;92.80
33645;DHT22;19986;48.190;16.366;2023-07-20T04:35:07;26.10;92.70
33645;DHT22;19986;48.190;16.366;2023-07-20T04:37:35;26.10;92.70
33645;DHT22;19986;48.190;16.366;2023-07-20T04:40:01;26.20;92.70
33645;DHT22;19986;48.190;16.366;2023-07-20T04:42:27;26.30;92.80
33645;DHT22;19986;48.190;16.366;2023-07-20T04:44:53;26.20;92.90
33645;DHT22;19986;48.190;16.366;2023-07-20T04:47:19;26.10;93.10
33645;DHT22;19986;48.190;16.366;2023-07-20T04:49:45;26.00;93.20
33645;DHT22;19986;48.190;16.366;2023-07-20T04:52:10;26.00;93.40
33645;DHT22;19986;48.190;16.366;2023-07-20T04:54:36;26.00;93.40
33645;DHT22;19986;48.190;16.366;2023-07-20T04:57:02;26.00;93.40
33645;DHT22;19986;48.190;16.366;2023-07-20T04:59:30;26.00;93.50
33645;DHT22;19986;48.190;16.366;2023-07-20T05:01:55;26.10;93.50
33645;DHT22;19986;48.190;16.366;2023-07-20T05:04:21;26.20;93.50
33645;DHT22;19986;48.190;16.366;2023-07-20T05:06:47;26.70;93.60
33645;DHT22;19986;48.190;16.366;2023-07-20T05:09:13;28.60;92.20
33645;DHT22;19986;48.190;16.366;2023-07-20T05:11:39;30.30;90.30
33645;DHT22;19986;48.190;16.366;2023-07-20T05:14:04;30.90;88.40
33645;DHT22;19986;48.190;16.366;2023-07-20T05:16:30;31.20;87.10
33645;DHT22;19986;48.190;16.366;2023-07-20T05:18:56;30.60;87.10
33645;DHT22;19986;48.190;16.366;2023-07-20T05:21:23;29.80;88.30
33645;DHT22;19986;48.190;16.366;2023-07-20T05:23:48;29.40;89.00
33645;DHT22;19986;48.190;16.366;2023-07-20T05:26:14;29.00;90.00
33645;DHT22;19986;48.190;16.366;2023-07-20T05:28:40;28.80;90.40
33645;DHT22;19986;48.190;16.366;2023-07-20T05:31:06;28.60;90.40
33645;DHT22;19986;48.190;16.366;2023-07-20T05:33:32;28.50;90.50
33645;DHT22;19986;48.190;16.366;2023-07-20T05:35:58;28.30;90.70
33645;DHT22;19986;48.190;16.366;2023-07-20T05:38:25;28.00;91.00
33645;DHT22;19986;48.190;16.366;2023-07-20T05:40:50;27.80;91.30
33645;DHT22;19986;48.190;16.366;2023-07-20T05:43:16;27.90;91.40
33645;DHT22;19986;48.190;16.366;2023-07-20T05:45:43;28.10;91.40
33645;DHT22;19986;48.190;16.366;2023-07-20T05:48:11;28.20;91.00
33645;DHT22;19986;48.190;16.366;2023-07-20T05:50:38;28.00;91.10
33645;DHT22;19986;48.190;16.366;2023-07-20T05:53:04;27.80;91.20
33645;DHT22;19986;48.190;16.366;2023-07-20T05:55:29;27.80;91.40
33645;DHT22;19986;48.190;16.366;2023-07-20T05:57:55;27.80;91.40
33645;DHT22;19986;48.190;16.366;2023-07-20T06:00:22;27.90;91.40
33645;DHT22;19986;48.190;16.366;2023-07-20T06:02:55;28.00;91.30
33645;DHT22;19986;48.190;16.366;2023-07-20T06:05:22;28.00;91.20
33645;DHT22;19986;48.190;16.366;2023-07-20T06:07:49;28.00;91.30
33645;DHT22;19986;48.190;16.366;2023-07-20T06:10:15;27.90;91.30
33645;DHT22;19986;48.190;16.366;2023-07-20T06:12:41;27.70;91.40
33645;DHT22;19986;48.190;16.366;2023-07-20T06:15:27;27.70;91.60
33645;DHT22;19986;48.190;16.366;2023-07-20T06:17:54;27.70;91.80
33645;DHT22;19986;48.190;16.366;2023-07-20T06:20:21;27.70;91.70
33645;DHT22;19986;48.190;16.366;2023-07-20T06:22:47;27.70;91.50
33645;DHT22;19986;48.190;16.366;2023-07-20T06:25:14;27.80;91.40
33645;DHT22;19986;48.190;16.366;2023-07-20T06:27:40;27.90;91.20
33645;DHT22;19986;48.190;16.366;2023-07-20T06:30:06;27.90;90.90
33645;DHT22;19986;48.190;16.366;2023-07-20T06:32:32;27.90;90.80
33645;DHT22;19986;48.190;16.366;2023-07-20T06:34:58;27.90;90.60
33645;DHT22;19986;48.190;16.366;2023-07-20T06:37:23;27.80;90.80
33645;DHT22;19986;48.190;16.366;2023-07-20T06:39:49;27.80;90.70
33645;DHT22;19986;48.190;16.366;2023-07-20T06:42:15;27.70;90.80
33645;DHT22;19986;48.190;16.366;2023-07-20T06:44:41;27.80;90.90
33645;DHT22;19986;48.190;16.366;2023-07-20T06:47:07;27.80;90.80
33645;DHT22;19986;48.190;16.366;2023-07-20T06:49:33;27.80;90.80
33645;DHT22;19986;48.190;16.366;2023-07-20T06:51:59;27.80;90.70
33645;DHT22;19986;48.190;16.366;2023-07-20T06:54:24;27.80;90.50
33645;DHT22;19986;48.190;16.366;2023-07-20T06:56:50;28.00;90.50
33645;DHT22;19986;48.190;16.366;2023-07-20T06:59:16;28.00;90.10
33645;DHT22;19986;48.190;16.366;2023-07-20T07:01:42;28.00;90.20
33645;DHT22;19986;48.190;16.366;2023-07-20T07:04:08;28.10;90.30
33645;DHT22;19986;48.190;16.366;2023-07-20T07:06:35;28.30;90.10
33645;DHT22;19986;48.190;16.366;2023-07-20T07:09:02;28.20;90.00
33645;DHT22;19986;48.190;16.366;2023-07-20T07:11:29;28.20;90.10
33645;DHT22;19986;48.190;16.366;2023-07-20T07:13:55;28.30;90.30
33645;DHT22;19986;48.190;16.366;2023-07-20T07:16:22;28.30;90.20
33645;DHT22;19986;48.190;16.366;2023-07-20T07:18:49;28.30;90.30
33645;DHT22;19986;48.190;16.366;2023-07-20T07:21:16;28.40;90.30
33645;DHT22;19986;48.190;16.366;2023-07-20T07:23:42;28.60;90.00
33645;DHT22;19986;48.190;16.366;2023-07-20T07:26:09;28.70;90.00
33645;DHT22;19986;48.190;16.366;2023-07-20T07:28:35;28.80;90.00
33645;DHT22;19986;48.190;16.366;2023-07-20T07:31:04;28.90;89.90
33645;DHT22;19986;48.190;16.366;2023-07-20T07:33:31;29.00;88.70
33645;DHT22;19986;48.190;16.366;2023-07-20T07:35:57;28.90;88.50
33645;DHT22;19986;48.190;16.366;2023-07-20T07:38:23;28.90;88.80
33645;DHT22;19986;48.190;16.366;2023-07-20T07:40:49;28.80;89.40
33645;DHT22;19986;48.190;16.366;2023-07-20T07:43:15;28.90;89.90
33645;DHT22;19986;48.190;16.366;2023-07-20T07:45:41;29.00;89.70
33645;DHT22;19986;48.190;16.366;2023-07-20T07:48:07;28.80;89.70
33645;DHT22;19986;48.190;16.366;2023-07-20T07:50:34;28.70;90.00
33645;DHT22;19986;48.190;16.366;2023-07-20T07:53:00;28.90;90.10
33645;DHT22;19986;48.190;16.366;2023-07-20T07:55:26;29.00;90.10
33645;DHT22;19986;48.190;16.366;2023-07-20T07:57:52;29.00;90.10
33645;DHT22;19986;48.190;16.366;2023-07-20T08:00:18;29.10;89.70
33645;DHT22;19986;48.190;16.366;2023-07-20T08:02:45;29.40;89.10
33645;DHT22;19986;48.190;16.366;2023-07-20T08:05:12;29.50;88.40
33645;DHT22;19986;48.190;16.366;2023-07-20T08:07:38;29.50;88.40
33645;DHT22;19986;48.190;16.366;2023-07-20T08:10:04;29.50;88.60
33645;DHT22;19986;48.190;16.366;2023-07-20T08:12:30;29.40;88.80
33645;DHT22;19986;48.190;16.366;2023-07-20T08:14:56;29.30;88.60
33645;DHT22;19986;48.190;16.366;2023-07-20T08:17:22;29.30;88.90
33645;DHT22;19986;48.190;16.366;2023-07-20T08:19:48;29.40;88.90
33645;DHT22;19986;48.190;16.366;2023-07-20T08:22:14;29.50;88.50
33645;DHT22;19986;48.190;16.366;2023-07-20T08:24:41;29.60;87.50
33645;DHT22;19986;48.190;16.366;2023-07-20T08:27:08;29.90;87.30
33645;DHT22;19986;48.190;16.366;2023-07-20T08:29:35;30.10;86.90
33645;DHT22;19986;48.190;16.366;2023-07-20T08:32:01;30.00;86.20
33645;DHT22;19986;48.190;16.366;2023-07-20T08:34:27;29.80;86.50
33645;DHT22;19986;48.190;16.366;2023-07-20T08:36:53;29.60;86.30
33645;DHT22;19986;48.190;16.366;2023-07-20T08:39:19;29.50;87.20
33645;DHT22;19986;48.190;16.366;2023-07-20T08:41:48;29.30;87.60
33645;DHT22;19986;48.190;16.366;2023-07-20T08:44:14;29.30;87.80
33645;DHT22;19986;48.190;16.366;2023-07-20T08:46:41;29.40;87.90
33645;DHT22;19986;48.190;16.366;2023-07-20T08:49:08;29.50;87.40
33645;DHT22;19986;48.190;16.366;2023-07-20T08:51:35;29.50;87.50
33645;DHT22;19986;48.190;16.366;2023-07-20T08:54:01;29.50;87.40
33645;DHT22;19986;48.190;16.366;2023-07-20T08:56:27;29.50;87.80
33645;DHT22;19986;48.190;16.366;2023-07-20T08:58:57;29.50;87.00
33645;DHT22;19986;48.190;16.366;2023-07-20T09:01:24;29.30;87.40
33645;DHT22;19986;48.190;16.366;2023-07-20T09:03:51;29.00;88.00
33645;DHT22;19986;48.190;16.366;2023-07-20T09:06:17;29.20;88.10
33645;DHT22;19986;48.190;16.366;2023-07-20T09:08:42;29.50;87.80
33645;DHT22;19986;48.190;16.366;2023-07-20T09:11:14;29.60;86.90
33645;DHT22;19986;48.190;16.366;2023-07-20T09:13:40;30.30;86.40
33645;DHT22;19986;48.190;16.366;2023-07-20T09:16:06;30.50;85.20
33645;DHT22;19986;48.190;16.366;2023-07-20T09:18:32;31.20;85.10
33645;DHT22;19986;48.190;16.366;2023-07-20T09:21:04;33.10;82.30
33645;DHT22;19986;48.190;16.366;2023-07-20T09:23:37;34.00;78.70
33645;DHT22;19986;48.190;16.366;2023-07-20T09:26:10;33.90;78.20
33645;DHT22;19986;48.190;16.366;2023-07-20T09:28:47;33.40;78.20
33645;DHT22;19986;48.190;16.366;2023-07-20T09:31:18;32.60;79.20
33645;DHT22;19986;48.190;16.366;2023-07-20T09:33:44;31.80;80.20
33645;DHT22;19986;48.190;16.366;2023-07-20T09:36:11;31.30;81.30
33645;DHT22;19986;48.190;16.366;2023-07-20T09:38:43;31.00;82.50
33645;DHT22;19986;48.190;16.366;2023-07-20T09:41:15;31.30;82.70
33645;DHT22;19986;48.190;16.366;2023-07-20T09:43:46;31.30;82.30
33645;DHT22;19986;48.190;16.366;2023-07-20T09:46:12;31.00;82.80
33645;DHT22;19986;48.190;16.366;2023-07-20T09:48:38;30.80;83.80
33645;DHT22;19986;48.190;16.366;2023-07-20T09:51:06;31.00;83.50
33645;DHT22;19986;48.190;16.366;2023-07-20T09:53:33;30.90;83.10
33645;DHT22;19986;48.190;16.366;2023-07-20T09:55:59;30.60;83.80
33645;DHT22;19986;48.190;16.366;2023-07-20T09:58:29;30.30;84.20
33645;DHT22;19986;48.190;16.366;2023-07-20T10:00:59;30.80;83.20
33645;DHT22;19986;48.190;16.366;2023-07-20T10:03:29;30.90;83.30
33645;DHT22;19986;48.190;16.366;2023-07-20T10:06:07;30.50;83.50
33645;DHT22;19986;48.190;16.366;2023-07-20T10:08:38;30.60;83.00
33645;DHT22;19986;48.190;16.366;2023-07-20T10:11:08;30.70;83.30
33645;DHT22;19986;48.190;16.366;2023-07-20T10:13:38;31.60;81.20
33645;DHT22;19986;48.190;16.366;2023-07-20T10:16:10;31.70;79.90
33645;DHT22;19986;48.190;16.366;2023-07-20T10:19:31;31.60;80.00
33645;DHT22;19986;48.190;16.366;2023-07-20T10:22:12;31.30;80.00
33645;DHT22;19986;48.190;16.366;2023-07-20T10:24:39;31.20;81.00
33645;DHT22;19986;48.190;16.366;2023-07-20T10:27:07;32.20;80.40
33645;DHT22;19986;48.190;16.366;2023-07-20T10:29:34;32.50;77.80
33645;DHT22;19986;48.190;16.366;2023-07-20T10:32:00;32.40;77.80
33645;DHT22;19986;48.190;16.366;2023-07-20T10:34:27;32.60;78.20
33645;DHT22;19986;48.190;16.366;2023-07-20T10:36:54;34.00;76.10
33645;DHT22;19986;48.190;16.366;2023-07-20T10:39:26;35.40;73.30
33645;DHT22;19986;48.190;16.366;2023-07-20T10:42:09;36.40;70.90
33645;DHT22;19986;48.190;16.366;2023-07-20T10:44:39;37.50;69.50
33645;DHT22;19986;48.190;16.366;2023-07-20T10:47:12;37.70;67.60
33645;DHT22;19986;48.190;16.366;2023-07-20T10:49:58;37.30;67.50
33645;DHT22;19986;48.190;16.366;2023-07-20T10:52:25;36.50;67.90
33645;DHT22;19986;48.190;16.366;2023-07-20T10:54:51;36.70;69.10
33645;DHT22;19986;48.190;16.366;2023-07-20T10:57:29;37.60;69.10
33645;DHT22;19986;48.190;16.366;2023-07-20T11:00:18;38.70;66.40
33645;DHT22;19986;48.190;16.366;2023-07-20T11:02:49;39.10;64.00
33645;DHT22;19986;48.190;16.366;2023-07-20T11:05:34;38.70;64.10
33645;DHT22;19986;48.190;16.366;2023-07-20T11:08:10;38.40;65.00
33645;DHT22;19986;48.190;16.366;2023-07-20T11:10:36;38.40;65.40
33645;DHT22;19986;48.190;16.366;2023-07-20T11:13:21;38.30;65.50
33645;DHT22;19986;48.190;16.366;2023-07-20T11:16:02;38.50;65.10
33645;DHT22;19986;48.190;16.366;2023-07-20T11:18:30;39.30;64.00
33645;DHT22;19986;48.190;16.366;2023-07-20T11:20:58;39.30;63.70
33645;DHT22;19986;48.190;16.366;2023-07-20T11:23:24;39.50;62.60
33645;DHT22;19986;48.190;16.366;2023-07-20T11:25:51;39.40;62.30
33645;DHT22;19986;48.190;16.366;2023-07-20T11:28:16;39.20;62.50
33645;DHT22;19986;48.190;16.366;2023-07-20T11:30:42;39.50;62.70
33645;DHT22;19986;48.190;16.366;2023-07-20T11:33:09;39.80;61.90
33645;DHT22;19986;48.190;16.366;2023-07-20T11:35:41;39.90;61.20
33645;DHT22;19986;48.190;16.366;2023-07-20T11:38:08;39.70;62.00
33645;DHT22;19986;48.190;16.366;2023-07-20T11:40:34;39.90;61.60
33645;DHT22;19986;48.190;16.366;2023-07-20T11:43:00;40.10;61.20
33645;DHT22;19986;48.190;16.366;2023-07-20T11:45:26;40.10;61.10
33645;DHT22;19986;48.190;16.366;2023-07-20T11:47:53;39.90;60.50
33645;DHT22;19986;48.190;16.366;2023-07-20T11:50:20;39.90;60.80
33645;DHT22;19986;48.190;16.366;2023-07-20T11:52:47;39.80;60.30
33645;DHT22;19986;48.190;16.366;2023-07-20T11:55:13;39.50;60.50
33645;DHT22;19986;48.190;16.366;2023-07-20T11:57:39;39.60;60.70
33645;DHT22;19986;48.190;16.366;2023-07-20T12:00:05;39.70;60.90
33645;DHT22;19986;48.190;16.366;2023-07-20T12:02:35;39.60;61.40
33645;DHT22;19986;48.190;16.366;2023-07-20T12:05:02;39.00;61.00
33645;DHT22;19986;48.190;16.366;2023-07-20T12:07:44;38.70;61.90
33645;DHT22;19986;48.190;16.366;2023-07-20T12:10:11;38.50;62.00
33645;DHT22;19986;48.190;16.366;2023-07-20T12:12:41;38.20;62.20
33645;DHT22;19986;48.190;16.366;2023-07-20T12:15:27;38.00;62.40
33645;DHT22;19986;48.190;16.366;2023-07-20T12:17:59;37.40;63.00
33645;DHT22;19986;48.190;16.366;2023-07-20T12:20:26;37.10;63.60
33645;DHT22;19986;48.190;16.366;2023-07-20T12:22:52;36.90;63.90
33645;DHT22;19986;48.190;16.366;2023-07-20T12:25:19;36.90;63.80
33645;DHT22;19986;48.190;16.366;2023-07-20T12:27:47;37.00;63.70
33645;DHT22;19986;48.190;16.366;2023-07-20T12:30:14;37.10;64.00
33645;DHT22;19986;48.190;16.366;2023-07-20T12:32:40;37.40;63.40
33645;DHT22;19986;48.190;16.366;2023-07-20T12:35:06;37.00;63.60
33645;DHT22;19986;48.190;16.366;2023-07-20T12:37:33;36.60;64.20
33645;DHT22;19986;48.190;16.366;2023-07-20T12:39:59;36.20;64.60
33645;DHT22;19986;48.190;16.366;2023-07-20T12:42:26;35.90;65.30
33645;DHT22;19986;48.190;16.366;2023-07-20T12:44:52;35.80;65.40
33645;DHT22;19986;48.190;16.366;2023-07-20T12:47:18;35.50;65.20
33645;DHT22;19986;48.190;16.366;2023-07-20T12:49:44;35.10;65.50
33645;DHT22;19986;48.190;16.366;2023-07-20T12:52:13;34.80;66.40
33645;DHT22;19986;48.190;16.366;2023-07-20T12:54:40;34.50;66.80
33645;DHT22;19986;48.190;16.366;2023-07-20T12:57:06;34.30;66.50
33645;DHT22;19986;48.190;16.366;2023-07-20T12:59:32;34.20;66.30
33645;DHT22;19986;48.190;16.366;2023-07-20T13:01:58;33.80;67.60
33645;DHT22;19986;48.190;16.366;2023-07-20T13:04:24;33.70;67.20
33645;DHT22;19986;48.190;16.366;2023-07-20T13:06:50;33.50;66.90
33645;DHT22;19986;48.190;16.366;2023-07-20T13:09:16;33.30;66.70
33645;DHT22;19986;48.190;16.366;2023-07-20T13:11:42;33.10;67.90
33645;DHT22;19986;48.190;16.366;2023-07-20T13:14:07;33.00;68.80
33645;DHT22;19986;48.190;16.366;2023-07-20T13:16:33;32.90;67.90
33645;DHT22;19986;48.190;16.366;2023-07-20T13:19:02;33.00;68.50
33645;DHT22;19986;48.190;16.366;2023-07-20T13:21:28;33.10;68.00
33645;DHT22;19986;48.190;16.366;2023-07-20T13:23:54;33.20;67.80
33645;DHT22;19986;48.190;16.366;2023-07-20T13:26:20;33.20;67.50
33645;DHT22;19986;48.190;16.366;2023-07-20T13:28:46;33.20;68.50
33645;DHT22;19986;48.190;16.366;2023-07-20T13:31:12;33.20;68.00
33645;DHT22;19986;48.190;16.366;2023-07-20T13:33:38;33.20;68.00
33645;DHT22;19986;48.190;16.366;2023-07-20T13:36:04;33.10;67.90
33645;DHT22;19986;48.190;16.366;2023-07-20T13:38:31;33.00;68.00
33645;DHT22;19986;48.190;16.366;2023-07-20T13:40:57;33.00;67.80
33645;DHT22;19986;48.190;16.366;2023-07-20T13:43:23;32.90;68.40
33645;DHT22;19986;48.190;16.366;2023-07-20T13:45:49;32.90;67.60
33645;DHT22;19986;48.190;16.366;2023-07-20T13:48:14;32.80;68.30
33645;DHT22;19986;48.190;16.366;2023-07-20T13:50:42;32.70;68.00
33645;DHT22;19986;48.190;16.366;2023-07-20T13:53:08;32.70;68.00
33645;DHT22;19986;48.190;16.366;2023-07-20T13:55:34;32.70;67.70
33645;DHT22;19986;48.190;16.366;2023-07-20T13:58:02;32.90;68.00
33645;DHT22;19986;48.190;16.366;2023-07-20T14:00:28;32.90;67.90
33645;DHT22;19986;48.190;16.366;2023-07-20T14:02:58;33.00;67.00
33645;DHT22;19986;48.190;16.366;2023-07-20T14:05:25;33.20;66.60
33645;DHT22;19986;48.190;16.366;2023-07-20T14:07:51;33.50;66.70
33645;DHT22;19986;48.190;16.366;2023-07-20T14:10:17;33.50;65.90
33645;DHT22;19986;48.190;16.366;2023-07-20T14:12:43;33.60;66.70
33645;DHT22;19986;48.190;16.366;2023-07-20T14:15:10;33.60;66.30
33645;DHT22;19986;48.190;16.366;2023-07-20T14:17:37;33.60;66.10
33645;DHT22;19986;48.190;16.366;2023-07-20T14:20:03;33.60;67.40
33645;DHT22;19986;48.190;16.366;2023-07-20T14:22:32;33.40;68.10
33645;DHT22;19986;48.190;16.366;2023-07-20T14:24:58;33.40;67.90
33645;DHT22;19986;48.190;16.366;2023-07-20T14:27:26;33.50;66.80
33645;DHT22;19986;48.190;16.366;2023-07-20T14:29:52;33.60;67.20
33645;DHT22;19986;48.190;16.366;2023-07-20T14:32:19;33.80;68.30
33645;DHT22;19986;48.190;16.366;2023-07-20T14:34:45;33.80;69.90
33645;DHT22;19986;48.190;16.366;2023-07-20T14:37:11;33.70;69.50
33645;DHT22;19986;48.190;16.366;2023-07-20T14:39:37;33.50;69.20
33645;DHT22;19986;48.190;16.366;2023-07-20T14:42:03;33.60;67.80
33645;DHT22;19986;48.190;16.366;2023-07-20T14:44:29;33.50;68.70
33645;DHT22;19986;48.190;16.366;2023-07-20T14:46:55;33.60;68.40
33645;DHT22;19986;48.190;16.366;2023-07-20T14:49:21;33.60;66.50
33645;DHT22;19986;48.190;16.366;2023-07-20T14:51:47;33.60;68.50
33645;DHT22;19986;48.190;16.366;2023-07-20T14:54:13;33.60;69.30
33645;DHT22;19986;48.190;16.366;2023-07-20T14:56:42;33.60;67.70
33645;DHT22;19986;48.190;16.366;2023-07-20T14:59:14;33.60;66.20
33645;DHT22;19986;48.190;16.366;2023-07-20T15:01:39;33.50;66.60
33645;DHT22;19986;48.190;16.366;2023-07-20T15:04:05;33.60;66.40
33645;DHT22;19986;48.190;16.366;2023-07-20T15:06:31;33.60;65.80
33645;DHT22;19986;48.190;16.366;2023-07-20T15:08:57;33.60;66.20
33645;DHT22;19986;48.190;16.366;2023-07-20T15:11:23;33.50;66.70
33645;DHT22;19986;48.190;16.366;2023-07-20T15:13:49;33.40;66.80
33645;DHT22;19986;48.190;16.366;2023-07-20T15:16:15;33.50;67.00
33645;DHT22;19986;48.190;16.366;2023-07-20T15:18:41;33.40;66.30
33645;DHT22;19986;48.190;16.366;2023-07-20T15:21:07;33.30;66.60
33645;DHT22;19986;48.190;16.366;2023-07-20T15:23:32;33.20;66.30